Flood From: 18-02-2018 10:00 Until: 19-02-2018 06:00 warning for: Flood Level: Yellow info button

Although rather usual in this region, locally or potentially dangerous phenomena are expected. (such as local winds, summer thunderstorms, rising streams or high waves) Be aware and pay attention to the latest weather updates, especially if you carry out activities exposed to weather or close to a stream or shoreline. 


Meteo18 Weather Cam more information Meteo18 Weather Cam


Thunder radar more information blitzortung!


Rain radar more information rain snow radar


Visit our other weather sites:

Template documentation
and downloads

And another site



Weather Underground History page Text

Daily Summary for April 30, 2017 Units:  Metric    English   Both
« Previous Day
Next Day »
Daily Weekly Monthly Yearly Custom
  High: Low: Average:
Temperature: -17.8 °C -15.2 °C -11.8 °C
Dew Point: -17.8 °C -17.4 °C -15.2 °C
Humidity: Humidity % 43 % 68 %
Wind Speed: 0 km/h 0 km/h 10.1 km/h
Wind Gust: 0 km/h - -
Wind:- - SSE
Pressure: 0 hPa 33880.3 hPa -
Precipitation: 381 mm    
Historical Graphs
 
 
Tabular Data for April 30, 2017
Time Temperature Dew Point Pressure Wind Wind Speed Wind Gust Humidity Rainfall Rate (Hourly)
-17.8 °C -17.8 °C 0 hPa Calm     Humidity % 0 mm
00:02 -12.6 °C -16.7 °C 34212.1 hPa NE 2.6 km/h 7.7 km/h 60 % 0 mm
00:07 -12.6 °C -16.7 °C 34212.1 hPa NE 2.6 km/h 10.3 km/h 60 % 0 mm
00:12 -12.6 °C -16.7 °C 34212.1 hPa NE 2.6 km/h 10.3 km/h 60 % 0 mm
00:17 -12.6 °C -16.7 °C 34212.1 hPa NE 5.1 km/h 10.3 km/h 60 % 0 mm
00:22 -12.6 °C -16.7 °C 34212.1 hPa NE 5.1 km/h 10.3 km/h 60 % 0 mm
00:27 -12.6 °C -16.8 °C 34212.1 hPa NE 2.6 km/h 7.7 km/h 59 % 0 mm
00:32 -12.6 °C -16.7 °C 34212.1 hPa NE 5.1 km/h 7.7 km/h 60 % 0 mm
00:42 -12.7 °C -16.8 °C 34212.1 hPa NNE 5.1 km/h 7.7 km/h 60 % 0 mm
00:47 -12.7 °C -16.8 °C 34198.6 hPa NE 5.1 km/h 7.7 km/h 60 % 0 mm
00:52 -12.7 °C -16.7 °C 34198.6 hPa North 2.6 km/h 7.7 km/h 61 % 0 mm
00:57 -13 °C -16.8 °C 34198.6 hPa WNW 2.6 km/h 7.7 km/h 62 % 0 mm
01:02 -13.3 °C -16.7 °C 34198.6 hPa Calm   7.7 km/h 65 % 0 mm
01:07 -13.3 °C -16.8 °C 34198.6 hPa NNW 2.6 km/h 7.7 km/h 65 % 0 mm
01:12 -13.2 °C -16.7 °C 34198.6 hPa North 2.6 km/h 7.7 km/h 64 % 0 mm
01:17 -13.2 °C -16.8 °C 34198.6 hPa Calm   5.1 km/h 63 % 0 mm
01:22 -13.5 °C -16.8 °C 34198.6 hPa WNW 2.6 km/h 5.1 km/h 66 % 0 mm
01:27 -13.6 °C -16.7 °C 34198.6 hPa Calm   5.1 km/h 67 % 0 mm
01:32 -13.2 °C -16.7 °C 34198.6 hPa Calm   5.1 km/h 65 % 0 mm
01:37 -13.2 °C -16.8 °C 34198.6 hPa Calm   5.1 km/h 64 % 0 mm
01:42 -13.2 °C -16.7 °C 34198.6 hPa Calm   5.1 km/h 65 % 0 mm
01:47 -13.3 °C -16.7 °C 34198.6 hPa Calm   2.6 km/h 65 % 0 mm
01:52 -13.1 °C -16.6 °C 34188.4 hPa Calm   2.6 km/h 65 % 0 mm
02:02 -13.1 °C -16.7 °C 34188.4 hPa Calm   2.6 km/h 63 % 0 mm
02:12 -13.4 °C -16.8 °C 34188.4 hPa Calm   2.6 km/h 65 % 0 mm
02:17 -13.6 °C -16.7 °C 34188.4 hPa Calm     67 % 0 mm
02:22 -13.4 °C -16.6 °C 34188.4 hPa Calm   5.1 km/h 67 % 0 mm
02:32 -13.2 °C -16.7 °C 34188.4 hPa SSW 2.6 km/h 5.1 km/h 64 % 0 mm
02:42 -13.4 °C -16.7 °C 34188.4 hPa Calm   7.7 km/h 66 % 0 mm
02:47 -13.3 °C -16.8 °C 34188.4 hPa Calm   2.6 km/h 65 % 0 mm
02:52 -13.4 °C -16.7 °C 34188.4 hPa Calm   5.1 km/h 66 % 0 mm
02:57 -13.5 °C -16.8 °C 34188.4 hPa Calm   5.1 km/h 66 % 0 mm
03:02 -13.6 °C -16.7 °C 34178.3 hPa Calm   5.1 km/h 67 % 0 mm
03:12 -13.6 °C -16.7 °C 34178.3 hPa Calm   2.6 km/h 67 % 0 mm
03:17 -13.6 °C -16.6 °C 34178.3 hPa Calm   2.6 km/h 68 % 0 mm
03:22 -13.5 °C -16.7 °C 34178.3 hPa Calm   2.6 km/h 67 % 0 mm
03:32 -13.6 °C -16.7 °C 34178.3 hPa Calm   2.6 km/h 67 % 0 mm
03:37 -13.8 °C -16.8 °C 34178.3 hPa Calm   2.6 km/h 68 % 0 mm
03:42 -13.9 °C -16.8 °C 34178.3 hPa Calm   2.6 km/h 69 % 0 mm
03:47 -13.9 °C -16.8 °C 34178.3 hPa Calm   2.6 km/h 70 % 0 mm
03:52 -14 °C -16.8 °C 34178.3 hPa Calm   2.6 km/h 70 % 0 mm
03:57 -13.9 °C -16.8 °C 34178.3 hPa Calm   2.6 km/h 70 % 0 mm
04:02 -13.9 °C -16.8 °C 34178.3 hPa Calm   2.6 km/h 70 % 0 mm
04:12 -14.4 °C -16.8 °C 34178.3 hPa Calm   2.6 km/h 74 % 0 mm
04:17 -14.4 °C -16.7 °C 34178.3 hPa Calm   5.1 km/h 75 % 0 mm
04:22 -14.2 °C -16.7 °C 34178.3 hPa Calm   5.1 km/h 73 % 0 mm
04:32 -14.1 °C -16.7 °C 34178.3 hPa Calm   2.6 km/h 72 % 0 mm
04:42 -14.2 °C -16.8 °C 34178.3 hPa Calm     72 % 0 mm
04:52 -14.4 °C -16.9 °C 34178.3 hPa Calm   2.6 km/h 73 % 0 mm
04:57 -14.2 °C -16.9 °C 34164.7 hPa Calm   2.6 km/h 71 % 0 mm
05:02 -14.1 °C -16.9 °C 34164.7 hPa North 2.6 km/h 2.6 km/h 70 % 0 mm
05:12 -14 °C -16.9 °C 34154.6 hPa Calm   5.1 km/h 69 % 0 mm
05:17 -14.2 °C -17 °C 34154.6 hPa Calm   5.1 km/h 70 % 0 mm
05:22 -14.3 °C -17.1 °C 34154.6 hPa North 2.6 km/h 2.6 km/h 71 % 0 mm
05:27 -14.3 °C -16.9 °C 34154.6 hPa Calm   2.6 km/h 72 % 0 mm
05:32 -14.4 °C -17 °C 34154.6 hPa Calm   2.6 km/h 72 % 0 mm
05:37 -14.4 °C -17.1 °C 34154.6 hPa NW 2.6 km/h 2.6 km/h 72 % 0 mm
05:42 -14.6 °C -17.1 °C 34154.6 hPa WNW 2.6 km/h   73 % 0 mm
05:47 -14.6 °C -17.1 °C 34154.6 hPa Calm     73 % 0 mm
05:52 -14.4 °C -17.1 °C 34144.4 hPa Calm   5.1 km/h 71 % 0 mm
05:57 -14.4 °C -17.1 °C 34144.4 hPa Calm   5.1 km/h 71 % 0 mm
06:02 -14.3 °C -17.2 °C 34144.4 hPa NNW 2.6 km/h 2.6 km/h 70 % 0 mm
06:12 -14.2 °C -17.2 °C 34144.4 hPa North 2.6 km/h 2.6 km/h 69 % 0 mm
06:17 -14.3 °C -17.2 °C 34144.4 hPa North 5.1 km/h 5.1 km/h 69 % 0 mm
06:22 -14.3 °C -17.3 °C 34144.4 hPa North 5.1 km/h 5.1 km/h 68 % 0 mm
06:32 -14.7 °C -17.4 °C 34144.4 hPa Calm   5.1 km/h 71 % 0 mm
06:37 -14.8 °C -17.4 °C 34144.4 hPa Calm   5.1 km/h 72 % 0 mm
06:42 -14.9 °C -17.3 °C 34130.9 hPa Calm   5.1 km/h 73 % 0 mm
06:47 -14.8 °C -17.3 °C 34130.9 hPa Calm   5.1 km/h 72 % 0 mm
06:52 -14.7 °C -17.4 °C 34130.9 hPa Calm   5.1 km/h 71 % 0 mm
07:02 -15.2 °C -17.4 °C 34130.9 hPa Calm     75 % 0 mm
07:12 -15.1 °C -17.3 °C 34130.9 hPa Calm     76 % 0 mm
07:17 -14.8 °C -17.3 °C 34120.7 hPa Calm     73 % 0 mm
07:22 -14.5 °C -17.3 °C 34120.7 hPa Calm     70 % 0 mm
07:27 -14.4 °C -17.3 °C 34120.7 hPa Calm     69 % 0 mm
07:32 -14.3 °C -17.2 °C 34120.7 hPa Calm     69 % 0 mm
07:42 -14 °C -17.2 °C 34120.7 hPa Calm     67 % 0 mm
07:47 -13.7 °C -17.1 °C 34120.7 hPa Calm     65 % 0 mm
07:52 -13.4 °C -16.9 °C 34120.7 hPa Calm     64 % 0 mm
07:57 -13.1 °C -16.9 °C 34107.2 hPa Calm     62 % 0 mm
08:02 -12.8 °C -16.7 °C 34120.7 hPa Calm     61 % 0 mm
08:12 -12.7 °C -16.8 °C 34120.7 hPa Calm   7.7 km/h 60 % 0 mm
08:17 -12.7 °C -16.8 °C 34120.7 hPa SE 2.6 km/h 7.7 km/h 60 % 0 mm
08:22 -12.7 °C -16.6 °C 34107.2 hPa Calm   7.7 km/h 61 % 0 mm
08:32 -12.3 °C -16.7 °C 34107.2 hPa Calm   5.1 km/h 58 % 0 mm
08:42 -11.8 °C -16.8 °C 34107.2 hPa Calm     54 % 0 mm
08:47 -11.8 °C -16.8 °C 34107.2 hPa SSE 7.7 km/h   54 % 0 mm
08:52 -11.9 °C -16.8 °C 34107.2 hPa SE 7.7 km/h 15.6 km/h 54 % 0 mm
08:57 -11.8 °C -16.7 °C 34107.2 hPa SE 5.1 km/h 15.6 km/h 55 % 0 mm
09:02 -11.8 °C -16.9 °C 34097 hPa SE 10.3 km/h 20.8 km/h 53 % 0 mm
09:12 -11.6 °C -17.1 °C 34097 hPa East 5.1 km/h 28.5 km/h 51 % 0 mm
09:17 -11.4 °C -16.9 °C 34097 hPa SE 10.3 km/h 28.5 km/h 51 % 0 mm
09:22 -11.3 °C -17.1 °C 34097 hPa East 12.9 km/h 28.5 km/h 49 % 0 mm
09:32 -11.2 °C -16.9 °C 34086.9 hPa SSE 12.9 km/h 31.1 km/h 49 % 0 mm
09:42 -10.9 °C -16.9 °C 34086.9 hPa South 10.3 km/h 31.1 km/h 48 % 0 mm
09:52 -10.7 °C -16.8 °C 34086.9 hPa WSW 5.1 km/h 36.2 km/h 47 % 0 mm
09:57 -10.6 °C -16.7 °C 34073.3 hPa SE 2.6 km/h 36.2 km/h 47 % 0 mm
10:02 -10.4 °C -16.8 °C 34073.3 hPa East 18.2 km/h 36.2 km/h 46 % 0 mm
10:12 -10.3 °C -16.6 °C 34073.3 hPa ESE 18.2 km/h 36.2 km/h 46 % 0 mm
10:17 -10.2 °C -16.5 °C 34073.3 hPa SE 20.8 km/h 36.2 km/h 46 % 0 mm
10:22 -10 °C -16.6 °C 34073.3 hPa SE 18.2 km/h 36.2 km/h 45 % 0 mm
10:32 -9.8 °C -16 °C 34063.2 hPa East 12.9 km/h 31.1 km/h 47 % 0 mm
10:42 -9.5 °C -16.1 °C 34073.3 hPa SE 12.9 km/h 31.1 km/h 45 % 0 mm
10:47 -9.4 °C -15.9 °C 34063.2 hPa East 20.8 km/h 31.1 km/h 45 % 0 mm
10:52 -9.2 °C -16.2 °C 34063.2 hPa SSE 7.7 km/h 31.1 km/h 43 % 0 mm
10:57 -9.1 °C -15.7 °C 34063.2 hPa SSE 5.1 km/h 31.1 km/h 45 % 0 mm
11:02 -9.1 °C -15.9 °C 34063.2 hPa SW 18.2 km/h 31.1 km/h 44 % 0 mm
11:12 -9.1 °C -15.8 °C 34049.6 hPa ESE 23.3 km/h 33.6 km/h 44 % 0 mm
11:17 -9.1 °C -15.7 °C 34049.6 hPa SE 25.9 km/h 33.6 km/h 45 % 0 mm
11:22 -9.1 °C -15.8 °C 34049.6 hPa SSE 10.3 km/h 44.1 km/h 44 % 0 mm
11:32 -8.7 °C -15.2 °C 34049.6 hPa South 12.9 km/h 36.2 km/h 46 % 0 mm
11:37 -8.5 °C -15.5 °C 34039.5 hPa SE 10.3 km/h 36.2 km/h 43 % 0 mm
11:42 -8.4 °C -15.4 °C 34039.5 hPa SE 10.3 km/h 36.2 km/h 43 % 0 mm
11:52 -8.3 °C -15.4 °C 34029.3 hPa ESE 18.2 km/h 41.4 km/h 43 % 0 mm
11:57 -8.1 °C -15.2 °C 34029.3 hPa South 10.3 km/h 41.4 km/h 43 % 0 mm
12:02 -8.2 °C -15.1 °C 34029.3 hPa SSW 10.3 km/h 36.2 km/h 44 % 0 mm
12:12 -8.2 °C -14.8 °C 34029.3 hPa ESE 15.6 km/h 41.4 km/h 45 % 0 mm
12:17 -7.9 °C -14.8 °C 34015.8 hPa SE 23.3 km/h 41.4 km/h 44 % 0 mm
12:22 -8.1 °C -14.8 °C 34015.8 hPa East 18.2 km/h 41.4 km/h 45 % 0 mm
12:32 -7.8 °C -14.6 °C 34015.8 hPa SE 28.5 km/h 44.1 km/h 45 % 0 mm
12:37 -7.8 °C -14.4 °C 34015.8 hPa ESE 31.1 km/h 44.1 km/h 46 % 0 mm
12:42 -7.7 °C -14.4 °C 34005.6 hPa SW 7.7 km/h 44.1 km/h 45 % 0 mm
12:47 -7.6 °C -14.2 °C 34005.6 hPa East 20.8 km/h 44.1 km/h 46 % 0 mm
12:52 -7.7 °C -14.2 °C 34005.6 hPa SE 28.5 km/h 51.8 km/h 46 % 0 mm
13:02 -7.9 °C -14.3 °C 34005.6 hPa South 20.8 km/h 51.8 km/h 47 % 0 mm
13:12 -8 °C -14.2 °C 34005.6 hPa South 23.3 km/h 41.4 km/h 48 % 0 mm
13:17 -8 °C -14 °C 33992.1 hPa SE 12.9 km/h 41.4 km/h 49 % 0 mm
13:22 -8 °C -14 °C 33992.1 hPa SE 12.9 km/h 41.4 km/h 49 % 0 mm
13:32 -8.2 °C -14.1 °C 34005.6 hPa SSE 5.1 km/h 41.4 km/h 50 % 0 mm
13:37 -8.3 °C -14.1 °C 34005.6 hPa East 23.3 km/h 41.4 km/h 50 % 0 mm
13:42 -8.4 °C -13.9 °C 33992.1 hPa SSE 23.3 km/h 41.4 km/h 52 % 0 mm
13:47 -8.6 °C -13.6 °C 34005.6 hPa South 12.9 km/h 41.4 km/h 55 % 0 mm
13:52 -8.7 °C -13.4 °C 34005.6 hPa SE 18.2 km/h 33.6 km/h 57 % 0 mm
13:57 -8.7 °C -13.4 °C 33992.1 hPa South 7.7 km/h 33.6 km/h 57 % 0 mm
14:02 -8.7 °C -13.3 °C 33992.1 hPa SSE 5.1 km/h 33.6 km/h 58 % 0 mm
14:12 -8.7 °C -13.1 °C 33981.9 hPa ESE 18.2 km/h 28.5 km/h 60 % 0 mm
14:17 -8.7 °C -12.7 °C 33981.9 hPa ESE 10.3 km/h 20.8 km/h 63 % 0 mm
14:22 -8.7 °C -12.6 °C 33981.9 hPa East 5.1 km/h 20.8 km/h 63 % 0 mm
14:27 -8.7 °C -13 °C 33971.7 hPa SE 7.7 km/h 18.2 km/h 60 % 0 mm
14:32 -8.7 °C -12.6 °C 33958.2 hPa East 12.9 km/h 20.8 km/h 63 % 0 mm
14:42 -8.7 °C -12.8 °C 33958.2 hPa ESE 5.1 km/h 20.8 km/h 61 % 0 mm
14:47 -8.6 °C -12.8 °C 33958.2 hPa East 10.3 km/h 25.9 km/h 61 % 0 mm
14:52 -8.4 °C -12.7 °C 33958.2 hPa SE 18.2 km/h 28.5 km/h 60 % 0 mm
14:57 -8.4 °C -12.8 °C 33958.2 hPa SE 12.9 km/h 31.1 km/h 60 % 0 mm
15:02 -8.4 °C -12.9 °C 33958.2 hPa ESE 7.7 km/h 31.1 km/h 59 % 0 mm
15:12 -8.4 °C -12.7 °C 33948 hPa ENE 7.7 km/h 31.1 km/h 61 % 0 mm
15:17 -8.4 °C -12.7 °C 33937.9 hPa ESE 7.7 km/h 31.1 km/h 60 % 0 mm
15:22 -8.4 °C -12.6 °C 33937.9 hPa SE 7.7 km/h 31.1 km/h 61 % 0 mm
15:32 -8.5 °C -12.7 °C 33937.9 hPa East 5.1 km/h 28.5 km/h 61 % 0 mm
15:42 -8.5 °C -12.8 °C 33924.3 hPa ENE 5.1 km/h 33.6 km/h 60 % 0 mm
15:52 -8.4 °C -12.7 °C 33914.2 hPa SSE 7.7 km/h 31.1 km/h 60 % 0 mm
16:02 -8.3 °C -12.9 °C 33914.2 hPa SSE 18.2 km/h 44.1 km/h 58 % 0 mm
16:12 -8 °C -12.9 °C 33900.6 hPa ESE 25.9 km/h 44.1 km/h 56 % 0 mm
16:17 -8 °C -13.2 °C 33900.6 hPa SE 36.2 km/h 44.1 km/h 54 % 0 mm
16:22 -7.9 °C -13.3 °C 33900.6 hPa SSW 28.5 km/h 44.1 km/h 53 % 0 mm
16:32 -7.8 °C -13.2 °C 33890.5 hPa SE 18.2 km/h 62.1 km/h 53 % 0 mm
16:37 -7.7 °C -13.2 °C 33890.5 hPa ESE 23.3 km/h 62.1 km/h 52 % 0 mm
16:47 -7.6 °C -13.3 °C 33890.5 hPa East 15.6 km/h 41.4 km/h 51 % 0 mm
16:52 -7.7 °C -13.4 °C 33880.3 hPa SW 15.6 km/h 46.7 km/h 51 % 0 mm
16:57 -7.7 °C -13.4 °C 33880.3 hPa SE 25.9 km/h 57 km/h 51 % 0 mm
17:02 -7.7 °C -13.4 °C 33880.3 hPa SSW 33.6 km/h 57 km/h 51 % 0 mm
17:07 -7.7 °C -13.4 °C 33880.3 hPa East 31.1 km/h 59.5 km/h 51 % 0 mm
17:12 -7.8 °C -13.3 °C 33890.5 hPa SSW 20.8 km/h 59.5 km/h 52 % 0 mm
17:17 -7.8 °C -13.3 °C 33890.5 hPa SE 25.9 km/h 59.5 km/h 52 % 0 mm
17:22 -7.8 °C -13.2 °C 33890.5 hPa SW 12.9 km/h 46.7 km/h 53 % 0 mm
17:27 -7.9 °C -13.1 °C 33890.5 hPa South 31.1 km/h 41.4 km/h 55 % 0 mm
17:32 -8.9 °C -12.6 °C 33924.3 hPa SW 44.1 km/h 44.1 km/h 65 % 0 mm
17:42 -11.3 °C -12.4 °C 33937.9 hPa West 57 km/h 67.3 km/h 87 % 0 mm
17:47 -11.6 °C -12.6 °C 33948 hPa WSW 18.2 km/h 93.2 km/h 89 % 12.7 mm
17:52 -11.7 °C -12.6 °C 33948 hPa West 23.3 km/h 93.2 km/h 90 % 58.42 mm
17:57 -11.8 °C -12.7 °C 33958.2 hPa West 25.9 km/h 72.6 km/h 90 % 83.82 mm
18:02 -11.9 °C -12.8 °C 33958.2 hPa West 54.4 km/h 62.1 km/h 89 % 83.82 mm
18:12 -12.1 °C -13 °C 33958.2 hPa West 46.7 km/h 64.7 km/h 90 % 96.52 mm
18:17 -12.2 °C -13.1 °C 33971.7 hPa WSW 10.3 km/h 64.7 km/h 90 % 116.84 mm
18:22 -12.2 °C -13.1 °C 33971.7 hPa West 23.3 km/h 64.7 km/h 90 % 116.84 mm
18:27 -12.3 °C -13.1 °C 33971.7 hPa WSW 23.3 km/h 54.4 km/h 91 % 129.54 mm
18:32 -12.3 °C -13.1 °C 33981.9 hPa West 20.8 km/h 54.4 km/h 91 % 129.54 mm
18:42 -12.3 °C -13 °C 33981.9 hPa SW 15.6 km/h 36.2 km/h 92 % 147.32 mm
18:52 -12.3 °C -12.9 °C 33992.1 hPa West 10.3 km/h 31.1 km/h 93 % 109.22 mm
18:57 -12.4 °C -13 °C 33992.1 hPa West 7.7 km/h 28.5 km/h 93 % 109.22 mm
19:02 -12.4 °C -13 °C 33992.1 hPa WSW 10.3 km/h 23.3 km/h 93 % 109.22 mm
19:12 -12.4 °C -13.1 °C 33992.1 hPa WSW 10.3 km/h 23.3 km/h 93 % 116.84 mm
19:22 -12.5 °C -13.1 °C 33992.1 hPa SW 12.9 km/h 31.1 km/h 93 % 121.92 mm
19:32 -12.6 °C -13.2 °C 34005.6 hPa SW 25.9 km/h 28.5 km/h 93 % 129.54 mm
19:42 -12.7 °C -13.4 °C 34015.8 hPa South 28.5 km/h 31.1 km/h 92 % 142.24 mm
19:47 -12.8 °C -13.5 °C 34015.8 hPa WSW 10.3 km/h 33.6 km/h 92 % 142.24 mm
19:52 -12.9 °C -13.6 °C 34015.8 hPa SW 15.6 km/h 33.6 km/h 92 % 129.54 mm
19:57 -13.1 °C -13.7 °C 34029.3 hPa SW 12.9 km/h 31.1 km/h 92 % 116.84 mm
20:02 -13.1 °C -13.7 °C 34029.3 hPa WSW 23.3 km/h 36.2 km/h 93 % 109.22 mm
20:12 -13.1 °C -13.7 °C 34039.5 hPa SW 7.7 km/h 38.8 km/h 93 % 96.52 mm
20:17 -13.2 °C -13.8 °C 34049.6 hPa SW 12.9 km/h 38.8 km/h 93 % 83.82 mm
20:22 -13.2 °C -13.8 °C 34063.2 hPa South 10.3 km/h 31.1 km/h 93 % 83.82 mm
20:32 -13.2 °C -13.7 °C 34063.2 hPa SSW 20.8 km/h 31.1 km/h 94 % 76.2 mm
20:42 -13.2 °C -13.7 °C 34063.2 hPa SW 18.2 km/h 28.5 km/h 94 % 63.5 mm
20:47 -13.3 °C -13.8 °C 34073.3 hPa SSW 7.7 km/h 28.5 km/h 94 % 58.42 mm
20:52 -13.3 °C -13.8 °C 34063.2 hPa SSW 10.3 km/h 23.3 km/h 94 % 58.42 mm
20:57 -13.3 °C -13.8 °C 34073.3 hPa South 7.7 km/h 23.3 km/h 94 % 50.8 mm
21:02 -13.3 °C -13.8 °C 34073.3 hPa SW 7.7 km/h 23.3 km/h 94 % 50.8 mm
21:12 -13.3 °C -13.8 °C 34073.3 hPa South 12.9 km/h 20.8 km/h 94 % 45.72 mm
21:17 -13.4 °C -13.9 °C 34073.3 hPa SSW 2.6 km/h 20.8 km/h 94 % 33.02 mm
21:22 -13.4 °C -13.9 °C 34073.3 hPa SSW 5.1 km/h 20.8 km/h 94 % 25.4 mm
21:32 -13.4 °C -13.9 °C 34073.3 hPa South 7.7 km/h 15.6 km/h 94 % 12.7 mm
21:42 -13.4 °C -13.9 °C 34063.2 hPa SE 5.1 km/h 15.6 km/h 94 % 12.7 mm
21:52 -13.5 °C -14 °C 34049.6 hPa SSE 2.6 km/h 15.6 km/h 94 % 20.32 mm
21:57 -13.5 °C -14 °C 34063.2 hPa SW 2.6 km/h 12.9 km/h 94 % 12.7 mm
22:02 -13.5 °C -14 °C 34086.9 hPa South 7.7 km/h 10.3 km/h 94 % 12.7 mm
22:12 -13.5 °C -14 °C 34107.2 hPa South 12.9 km/h 23.3 km/h 94 % 12.7 mm
22:17 -13.5 °C -14 °C 34107.2 hPa SSW 10.3 km/h 25.9 km/h 94 % 12.7 mm
22:22 -13.5 °C -14.1 °C 34107.2 hPa SSW 15.6 km/h 28.5 km/h 93 % 12.7 mm
22:32 -13.5 °C -14.2 °C 34107.2 hPa SW 23.3 km/h 36.2 km/h 92 % 12.7 mm
22:42 -13.5 °C -14.2 °C 34120.7 hPa South 18.2 km/h 36.2 km/h 92 % 12.7 mm
22:47 -13.5 °C -14.2 °C 34120.7 hPa SSW 12.9 km/h 38.8 km/h 92 % 7.62 mm
22:52 -13.6 °C -14.2 °C 34107.2 hPa SE 18.2 km/h 38.8 km/h 92 % 7.62 mm
22:57 -13.6 °C -14.2 °C 34107.2 hPa SW 10.3 km/h 36.2 km/h 92 % 7.62 mm
23:02 -13.6 °C -14.2 °C 34107.2 hPa South 12.9 km/h 36.2 km/h 92 % 7.62 mm
23:12 -13.6 °C -14.3 °C 34107.2 hPa SW 15.6 km/h 36.2 km/h 92 % 7.62 mm
23:17 -13.7 °C -14.4 °C 34107.2 hPa SSW 15.6 km/h 36.2 km/h 91 % 7.62 mm
23:22 -13.7 °C -14.4 °C 34097 hPa SSW 18.2 km/h 36.2 km/h 91 % 7.62 mm
23:27 -13.7 °C -14.4 °C 34097 hPa South 20.8 km/h 36.2 km/h 91 % 0 mm
23:32 -13.7 °C -14.5 °C 34097 hPa SW 7.7 km/h 33.6 km/h 91 % 0 mm
23:37 -13.8 °C -14.6 °C 34107.2 hPa SW 10.3 km/h 31.1 km/h 91 % 0 mm
23:42 -13.8 °C -14.6 °C 34107.2 hPa SSW 15.6 km/h 31.1 km/h 91 % 0 mm
23:52 -13.8 °C -14.6 °C 34107.2 hPa SSW 20.8 km/h 28.5 km/h 91 % 0 mm
23:57 -13.8 °C -14.6 °C 34120.7 hPa SSW 20.8 km/h 25.9 km/h 91 % 0 mm
Meteo18
Compliments of Weather Underground - 4 mb

Script developed by  Jim McMurry - jmcmurry@mwt.net Adapted for the template by  Wim van der Kuil - Leuven-Template.eu

You find our weather info also at:

European Weather Network

Weather Underground

Equipment we use:

Weather-station
Davis Vue

Weather-program
Meteobridge

Weather-server
Raspberry PI 2 B+

Provider
1 and 1

Davis Vue

Meteobridge

Raspberry PI 2 B+

1 and 1